sensor_id;sensor_type;location;lat;lon;timestamp;P1;durP1;ratioP1;P2;durP2;ratioP2
20241;SDS011;10279;46.388;8.116;2022-08-19T00:01:25;1.60;;;1.00;;
20241;SDS011;10279;46.388;8.116;2022-08-19T00:03:59;2.65;;;1.65;;
20241;SDS011;10279;46.388;8.116;2022-08-19T00:06:28;1.33;;;1.20;;
20241;SDS011;10279;46.388;8.116;2022-08-19T00:08:56;4.93;;;1.00;;
20241;SDS011;10279;46.388;8.116;2022-08-19T00:11:23;2.28;;;1.20;;
20241;SDS011;10279;46.388;8.116;2022-08-19T00:13:54;1.92;;;1.00;;
20241;SDS011;10279;46.388;8.116;2022-08-19T00:16:23;1.60;;;1.15;;
20241;SDS011;10279;46.388;8.116;2022-08-19T00:18:52;1.30;;;1.20;;
20241;SDS011;10279;46.388;8.116;2022-08-19T00:21:22;1.90;;;1.15;;
20241;SDS011;10279;46.388;8.116;2022-08-19T00:23:50;1.90;;;1.05;;
20241;SDS011;10279;46.388;8.116;2022-08-19T00:26:17;1.88;;;1.30;;
20241;SDS011;10279;46.388;8.116;2022-08-19T00:28:45;0.90;;;0.90;;
20241;SDS011;10279;46.388;8.116;2022-08-19T00:31:13;2.05;;;1.08;;
20241;SDS011;10279;46.388;8.116;2022-08-19T00:33:42;1.40;;;1.30;;
20241;SDS011;10279;46.388;8.116;2022-08-19T00:36:10;1.80;;;1.25;;
20241;SDS011;10279;46.388;8.116;2022-08-19T00:38:38;1.58;;;1.30;;
20241;SDS011;10279;46.388;8.116;2022-08-19T00:41:10;1.35;;;1.25;;
20241;SDS011;10279;46.388;8.116;2022-08-19T00:43:39;1.45;;;1.30;;
20241;SDS011;10279;46.388;8.116;2022-08-19T00:46:07;1.30;;;1.20;;
20241;SDS011;10279;46.388;8.116;2022-08-19T00:48:35;2.13;;;1.15;;
20241;SDS011;10279;46.388;8.116;2022-08-19T00:51:03;4.53;;;1.38;;
20241;SDS011;10279;46.388;8.116;2022-08-19T00:53:34;1.27;;;1.17;;
20241;SDS011;10279;46.388;8.116;2022-08-19T00:56:01;0.95;;;0.93;;
20241;SDS011;10279;46.388;8.116;2022-08-19T00:58:33;1.10;;;0.95;;
20241;SDS011;10279;46.388;8.116;2022-08-19T01:01:03;3.22;;;1.20;;
20241;SDS011;10279;46.388;8.116;2022-08-19T01:03:30;3.03;;;1.23;;
20241;SDS011;10279;46.388;8.116;2022-08-19T01:06:18;1.65;;;1.13;;
20241;SDS011;10279;46.388;8.116;2022-08-19T01:08:46;2.20;;;1.48;;
20241;SDS011;10279;46.388;8.116;2022-08-19T01:11:15;2.13;;;1.05;;
20241;SDS011;10279;46.388;8.116;2022-08-19T01:13:43;2.58;;;1.17;;
20241;SDS011;10279;46.388;8.116;2022-08-19T01:16:15;1.60;;;1.25;;
20241;SDS011;10279;46.388;8.116;2022-08-19T01:18:43;4.80;;;1.27;;
20241;SDS011;10279;46.388;8.116;2022-08-19T01:21:13;2.50;;;1.30;;
20241;SDS011;10279;46.388;8.116;2022-08-19T01:23:42;1.52;;;1.30;;
20241;SDS011;10279;46.388;8.116;2022-08-19T01:26:12;6.00;;;1.40;;
20241;SDS011;10279;46.388;8.116;2022-08-19T01:28:40;2.63;;;1.05;;
20241;SDS011;10279;46.388;8.116;2022-08-19T01:31:10;2.85;;;1.27;;
20241;SDS011;10279;46.388;8.116;2022-08-19T01:33:53;1.42;;;1.30;;
20241;SDS011;10279;46.388;8.116;2022-08-19T01:36:23;1.77;;;1.30;;
20241;SDS011;10279;46.388;8.116;2022-08-19T01:38:52;3.00;;;1.20;;
20241;SDS011;10279;46.388;8.116;2022-08-19T01:41:20;2.08;;;1.63;;
20241;SDS011;10279;46.388;8.116;2022-08-19T01:43:50;1.73;;;0.95;;
20241;SDS011;10279;46.388;8.116;2022-08-19T01:46:38;1.67;;;1.10;;
20241;SDS011;10279;46.388;8.116;2022-08-19T01:49:06;1.83;;;1.13;;
20241;SDS011;10279;46.388;8.116;2022-08-19T01:51:34;2.25;;;0.90;;
20241;SDS011;10279;46.388;8.116;2022-08-19T01:54:06;1.17;;;0.98;;
20241;SDS011;10279;46.388;8.116;2022-08-19T01:56:33;1.10;;;1.00;;
20241;SDS011;10279;46.388;8.116;2022-08-19T01:59:05;1.65;;;1.30;;
20241;SDS011;10279;46.388;8.116;2022-08-19T02:01:35;3.70;;;1.13;;
20241;SDS011;10279;46.388;8.116;2022-08-19T02:04:03;2.13;;;1.10;;
20241;SDS011;10279;46.388;8.116;2022-08-19T02:06:31;2.28;;;1.10;;
20241;SDS011;10279;46.388;8.116;2022-08-19T02:08:59;1.60;;;1.13;;
20241;SDS011;10279;46.388;8.116;2022-08-19T02:11:28;1.05;;;0.95;;
20241;SDS011;10279;46.388;8.116;2022-08-19T02:13:58;2.50;;;1.17;;
20241;SDS011;10279;46.388;8.116;2022-08-19T02:16:25;0.65;;;0.65;;
20241;SDS011;10279;46.388;8.116;2022-08-19T02:18:53;1.52;;;1.10;;
20241;SDS011;10279;46.388;8.116;2022-08-19T02:21:21;2.72;;;1.17;;
20241;SDS011;10279;46.388;8.116;2022-08-19T02:23:50;1.88;;;1.00;;
20241;SDS011;10279;46.388;8.116;2022-08-19T02:26:17;1.77;;;1.40;;
20241;SDS011;10279;46.388;8.116;2022-08-19T02:28:45;1.92;;;1.38;;
20241;SDS011;10279;46.388;8.116;2022-08-19T02:31:16;1.25;;;1.10;;
20241;SDS011;10279;46.388;8.116;2022-08-19T02:33:44;2.35;;;1.48;;
20241;SDS011;10279;46.388;8.116;2022-08-19T02:36:13;1.98;;;1.27;;
20241;SDS011;10279;46.388;8.116;2022-08-19T02:38:41;1.40;;;1.00;;
20241;SDS011;10279;46.388;8.116;2022-08-19T02:41:24;1.23;;;1.13;;
20241;SDS011;10279;46.388;8.116;2022-08-19T02:43:54;2.60;;;1.23;;
20241;SDS011;10279;46.388;8.116;2022-08-19T02:46:41;2.45;;;1.23;;
20241;SDS011;10279;46.388;8.116;2022-08-19T02:49:11;1.50;;;1.40;;
20241;SDS011;10279;46.388;8.116;2022-08-19T02:51:40;1.73;;;1.20;;
20241;SDS011;10279;46.388;8.116;2022-08-19T02:54:08;1.63;;;1.17;;
20241;SDS011;10279;46.388;8.116;2022-08-19T02:56:37;1.98;;;1.30;;
20241;SDS011;10279;46.388;8.116;2022-08-19T02:59:05;2.78;;;1.60;;
20241;SDS011;10279;46.388;8.116;2022-08-19T03:01:39;1.05;;;0.95;;
20241;SDS011;10279;46.388;8.116;2022-08-19T03:04:08;1.92;;;1.40;;
20241;SDS011;10279;46.388;8.116;2022-08-19T03:06:37;1.77;;;1.20;;
20241;SDS011;10279;46.388;8.116;2022-08-19T03:09:05;3.42;;;1.10;;
20241;SDS011;10279;46.388;8.116;2022-08-19T03:11:33;1.80;;;1.25;;
20241;SDS011;10279;46.388;8.116;2022-08-19T03:14:01;1.40;;;1.30;;
20241;SDS011;10279;46.388;8.116;2022-08-19T03:16:31;5.55;;;1.48;;
20241;SDS011;10279;46.388;8.116;2022-08-19T03:18:59;2.92;;;1.27;;
20241;SDS011;10279;46.388;8.116;2022-08-19T03:21:28;5.10;;;1.25;;
20241;SDS011;10279;46.388;8.116;2022-08-19T03:23:57;1.42;;;1.30;;
20241;SDS011;10279;46.388;8.116;2022-08-19T03:26:24;2.90;;;1.23;;
20241;SDS011;10279;46.388;8.116;2022-08-19T03:28:52;2.42;;;1.30;;
20241;SDS011;10279;46.388;8.116;2022-08-19T03:31:24;1.30;;;1.20;;
20241;SDS011;10279;46.388;8.116;2022-08-19T03:34:17;2.25;;;1.17;;
20241;SDS011;10279;46.388;8.116;2022-08-19T03:36:45;1.90;;;1.33;;
20241;SDS011;10279;46.388;8.116;2022-08-19T03:39:13;2.35;;;1.30;;
20241;SDS011;10279;46.388;8.116;2022-08-19T03:41:41;2.25;;;1.23;;
20241;SDS011;10279;46.388;8.116;2022-08-19T03:44:12;1.50;;;1.00;;
20241;SDS011;10279;46.388;8.116;2022-08-19T03:46:44;1.88;;;1.42;;
20241;SDS011;10279;46.388;8.116;2022-08-19T03:49:11;2.30;;;1.40;;
20241;SDS011;10279;46.388;8.116;2022-08-19T03:51:40;1.40;;;1.10;;
20241;SDS011;10279;46.388;8.116;2022-08-19T03:54:09;3.05;;;1.23;;
20241;SDS011;10279;46.388;8.116;2022-08-19T03:56:37;1.60;;;1.50;;
20241;SDS011;10279;46.388;8.116;2022-08-19T03:59:06;1.33;;;1.23;;
20241;SDS011;10279;46.388;8.116;2022-08-19T04:01:34;1.48;;;1.38;;
20241;SDS011;10279;46.388;8.116;2022-08-19T04:04:02;2.70;;;1.42;;
20241;SDS011;10279;46.388;8.116;2022-08-19T04:06:34;1.63;;;1.52;;
20241;SDS011;10279;46.388;8.116;2022-08-19T04:09:05;2.60;;;1.50;;
20241;SDS011;10279;46.388;8.116;2022-08-19T04:11:34;2.90;;;1.30;;
20241;SDS011;10279;46.388;8.116;2022-08-19T04:14:10;2.45;;;1.92;;
20241;SDS011;10279;46.388;8.116;2022-08-19T04:16:38;1.85;;;1.30;;
20241;SDS011;10279;46.388;8.116;2022-08-19T04:19:06;1.55;;;1.30;;
20241;SDS011;10279;46.388;8.116;2022-08-19T04:21:33;2.60;;;1.45;;
20241;SDS011;10279;46.388;8.116;2022-08-19T04:24:01;3.40;;;1.77;;
20241;SDS011;10279;46.388;8.116;2022-08-19T04:26:31;3.65;;;1.38;;
20241;SDS011;10279;46.388;8.116;2022-08-19T04:29:00;2.58;;;1.35;;
20241;SDS011;10279;46.388;8.116;2022-08-19T04:31:31;1.42;;;1.33;;
20241;SDS011;10279;46.388;8.116;2022-08-19T04:34:05;7.43;;;1.95;;
20241;SDS011;10279;46.388;8.116;2022-08-19T04:36:35;1.40;;;1.20;;
20241;SDS011;10279;46.388;8.116;2022-08-19T04:39:04;3.47;;;1.30;;
20241;SDS011;10279;46.388;8.116;2022-08-19T04:41:32;1.70;;;1.40;;
20241;SDS011;10279;46.388;8.116;2022-08-19T04:44:18;1.45;;;1.35;;
20241;SDS011;10279;46.388;8.116;2022-08-19T04:46:46;1.45;;;1.33;;
20241;SDS011;10279;46.388;8.116;2022-08-19T04:49:20;2.78;;;1.70;;
20241;SDS011;10279;46.388;8.116;2022-08-19T04:51:52;2.22;;;1.58;;
20241;SDS011;10279;46.388;8.116;2022-08-19T04:54:21;1.67;;;1.40;;
20241;SDS011;10279;46.388;8.116;2022-08-19T04:57:05;2.17;;;1.50;;
20241;SDS011;10279;46.388;8.116;2022-08-19T04:59:34;1.40;;;1.30;;
20241;SDS011;10279;46.388;8.116;2022-08-19T05:02:02;3.67;;;1.30;;
20241;SDS011;10279;46.388;8.116;2022-08-19T05:04:29;1.83;;;1.60;;
20241;SDS011;10279;46.388;8.116;2022-08-19T05:06:58;1.75;;;1.65;;
20241;SDS011;10279;46.388;8.116;2022-08-19T05:09:28;3.13;;;1.65;;
20241;SDS011;10279;46.388;8.116;2022-08-19T05:12:15;1.92;;;1.83;;
20241;SDS011;10279;46.388;8.116;2022-08-19T05:14:43;4.63;;;2.17;;
20241;SDS011;10279;46.388;8.116;2022-08-19T05:17:13;2.13;;;1.80;;
20241;SDS011;10279;46.388;8.116;2022-08-19T05:20:00;1.92;;;1.70;;
20241;SDS011;10279;46.388;8.116;2022-08-19T05:22:46;3.13;;;1.88;;
20241;SDS011;10279;46.388;8.116;2022-08-19T05:25:16;2.55;;;1.80;;
20241;SDS011;10279;46.388;8.116;2022-08-19T05:27:47;3.90;;;1.50;;
20241;SDS011;10279;46.388;8.116;2022-08-19T05:30:15;3.67;;;1.38;;
20241;SDS011;10279;46.388;8.116;2022-08-19T05:32:49;7.38;;;1.65;;
20241;SDS011;10279;46.388;8.116;2022-08-19T05:35:19;3.53;;;1.73;;
20241;SDS011;10279;46.388;8.116;2022-08-19T05:37:49;2.10;;;1.50;;
20241;SDS011;10279;46.388;8.116;2022-08-19T05:40:24;3.22;;;2.25;;
20241;SDS011;10279;46.388;8.116;2022-08-19T05:42:52;4.00;;;1.90;;
20241;SDS011;10279;46.388;8.116;2022-08-19T05:45:20;3.90;;;1.83;;
20241;SDS011;10279;46.388;8.116;2022-08-19T05:47:48;2.33;;;1.60;;
20241;SDS011;10279;46.388;8.116;2022-08-19T05:50:15;3.75;;;1.48;;
20241;SDS011;10279;46.388;8.116;2022-08-19T05:52:43;2.03;;;1.83;;
20241;SDS011;10279;46.388;8.116;2022-08-19T05:55:16;1.95;;;1.20;;
20241;SDS011;10279;46.388;8.116;2022-08-19T05:57:46;1.60;;;1.50;;
20241;SDS011;10279;46.388;8.116;2022-08-19T06:00:14;2.00;;;1.35;;
20241;SDS011;10279;46.388;8.116;2022-08-19T06:02:41;3.15;;;1.58;;
20241;SDS011;10279;46.388;8.116;2022-08-19T06:05:09;3.42;;;1.40;;
20241;SDS011;10279;46.388;8.116;2022-08-19T06:07:37;3.67;;;1.48;;
20241;SDS011;10279;46.388;8.116;2022-08-19T06:10:06;2.47;;;1.80;;
20241;SDS011;10279;46.388;8.116;2022-08-19T06:12:34;3.85;;;1.90;;
20241;SDS011;10279;46.388;8.116;2022-08-19T06:15:03;6.43;;;1.95;;
20241;SDS011;10279;46.388;8.116;2022-08-19T06:17:31;3.22;;;1.50;;
20241;SDS011;10279;46.388;8.116;2022-08-19T06:20:04;2.17;;;1.50;;
20241;SDS011;10279;46.388;8.116;2022-08-19T06:22:36;2.42;;;1.60;;
20241;SDS011;10279;46.388;8.116;2022-08-19T06:25:04;4.93;;;1.40;;
20241;SDS011;10279;46.388;8.116;2022-08-19T06:27:32;4.20;;;1.70;;
20241;SDS011;10279;46.388;8.116;2022-08-19T06:30:00;3.67;;;1.63;;
20241;SDS011;10279;46.388;8.116;2022-08-19T06:32:28;4.10;;;1.60;;
20241;SDS011;10279;46.388;8.116;2022-08-19T06:34:56;2.22;;;1.70;;
20241;SDS011;10279;46.388;8.116;2022-08-19T06:37:23;1.80;;;1.70;;
20241;SDS011;10279;46.388;8.116;2022-08-19T06:39:51;3.47;;;1.92;;
20241;SDS011;10279;46.388;8.116;2022-08-19T06:42:18;2.75;;;1.50;;
20241;SDS011;10279;46.388;8.116;2022-08-19T06:44:49;2.70;;;1.52;;
20241;SDS011;10279;46.388;8.116;2022-08-19T06:47:19;2.65;;;1.60;;
20241;SDS011;10279;46.388;8.116;2022-08-19T06:49:52;2.83;;;1.27;;
20241;SDS011;10279;46.388;8.116;2022-08-19T06:52:26;3.85;;;1.55;;
20241;SDS011;10279;46.388;8.116;2022-08-19T06:54:54;2.83;;;1.73;;
20241;SDS011;10279;46.388;8.116;2022-08-19T06:57:25;3.45;;;1.75;;
20241;SDS011;10279;46.388;8.116;2022-08-19T06:59:53;3.35;;;1.58;;
20241;SDS011;10279;46.388;8.116;2022-08-19T07:02:22;4.38;;;1.67;;
20241;SDS011;10279;46.388;8.116;2022-08-19T07:04:52;1.60;;;1.50;;
20241;SDS011;10279;46.388;8.116;2022-08-19T07:07:20;2.47;;;2.28;;
20241;SDS011;10279;46.388;8.116;2022-08-19T07:09:49;1.92;;;1.70;;
20241;SDS011;10279;46.388;8.116;2022-08-19T07:12:26;4.53;;;2.13;;
20241;SDS011;10279;46.388;8.116;2022-08-19T07:14:55;2.47;;;2.17;;
20241;SDS011;10279;46.388;8.116;2022-08-19T07:17:24;2.95;;;1.90;;
20241;SDS011;10279;46.388;8.116;2022-08-19T07:19:51;2.13;;;1.83;;
20241;SDS011;10279;46.388;8.116;2022-08-19T07:22:20;2.00;;;1.80;;
20241;SDS011;10279;46.388;8.116;2022-08-19T07:24:50;1.77;;;1.60;;
20241;SDS011;10279;46.388;8.116;2022-08-19T07:27:18;2.10;;;2.00;;
20241;SDS011;10279;46.388;8.116;2022-08-19T07:29:51;2.83;;;2.37;;
20241;SDS011;10279;46.388;8.116;2022-08-19T07:32:21;4.83;;;2.23;;
20241;SDS011;10279;46.388;8.116;2022-08-19T07:34:52;3.83;;;1.97;;
20241;SDS011;10279;46.388;8.116;2022-08-19T07:37:19;2.50;;;2.30;;
20241;SDS011;10279;46.388;8.116;2022-08-19T07:39:47;2.77;;;2.40;;
20241;SDS011;10279;46.388;8.116;2022-08-19T07:42:14;3.57;;;3.00;;
20241;SDS011;10279;46.388;8.116;2022-08-19T07:44:47;2.10;;;2.00;;
20241;SDS011;10279;46.388;8.116;2022-08-19T07:47:16;3.00;;;2.70;;
20241;SDS011;10279;46.388;8.116;2022-08-19T07:50:06;4.07;;;2.43;;
20241;SDS011;10279;46.388;8.116;2022-08-19T07:52:34;2.87;;;2.30;;
20241;SDS011;10279;46.388;8.116;2022-08-19T07:55:04;2.57;;;2.37;;
20241;SDS011;10279;46.388;8.116;2022-08-19T07:57:51;3.00;;;2.53;;
20241;SDS011;10279;46.388;8.116;2022-08-19T08:00:19;3.07;;;2.70;;
20241;SDS011;10279;46.388;8.116;2022-08-19T08:02:50;2.87;;;2.57;;
20241;SDS011;10279;46.388;8.116;2022-08-19T08:05:20;3.20;;;2.90;;
20241;SDS011;10279;46.388;8.116;2022-08-19T08:08:10;4.07;;;2.70;;
20241;SDS011;10279;46.388;8.116;2022-08-19T08:10:57;4.53;;;2.60;;
20241;SDS011;10279;46.388;8.116;2022-08-19T08:13:25;3.17;;;2.60;;
20241;SDS011;10279;46.388;8.116;2022-08-19T08:15:54;2.77;;;2.53;;
20241;SDS011;10279;46.388;8.116;2022-08-19T08:18:22;2.77;;;2.50;;
20241;SDS011;10279;46.388;8.116;2022-08-19T08:20:54;3.43;;;2.70;;
20241;SDS011;10279;46.388;8.116;2022-08-19T08:23:22;3.80;;;2.57;;
20241;SDS011;10279;46.388;8.116;2022-08-19T08:25:53;5.67;;;2.90;;
20241;SDS011;10279;46.388;8.116;2022-08-19T08:28:21;2.80;;;2.60;;
20241;SDS011;10279;46.388;8.116;2022-08-19T08:30:49;3.60;;;2.90;;
20241;SDS011;10279;46.388;8.116;2022-08-19T08:33:22;2.33;;;2.13;;
20241;SDS011;10279;46.388;8.116;2022-08-19T08:36:06;3.00;;;2.57;;
20241;SDS011;10279;46.388;8.116;2022-08-19T08:38:36;2.97;;;2.67;;
20241;SDS011;10279;46.388;8.116;2022-08-19T08:41:37;2.40;;;2.20;;
20241;SDS011;10279;46.388;8.116;2022-08-19T08:43:55;3.27;;;2.37;;
20241;SDS011;10279;46.388;8.116;2022-08-19T08:51:47;2.73;;;2.50;;
20241;SDS011;10279;46.388;8.116;2022-08-19T08:54:27;3.40;;;2.30;;
20241;SDS011;10279;46.388;8.116;2022-08-19T08:57:00;5.13;;;1.93;;
20241;SDS011;10279;46.388;8.116;2022-08-19T08:59:28;2.60;;;2.20;;
20241;SDS011;10279;46.388;8.116;2022-08-19T09:02:03;3.57;;;2.00;;
20241;SDS011;10279;46.388;8.116;2022-08-19T09:04:30;4.47;;;2.23;;
20241;SDS011;10279;46.388;8.116;2022-08-19T09:10:15;2.97;;;2.67;;
20241;SDS011;10279;46.388;8.116;2022-08-19T09:15:26;3.47;;;1.80;;
20241;SDS011;10279;46.388;8.116;2022-08-19T09:18:02;3.17;;;2.20;;
20241;SDS011;10279;46.388;8.116;2022-08-19T09:20:32;3.27;;;2.63;;
20241;SDS011;10279;46.388;8.116;2022-08-19T09:23:00;2.93;;;2.63;;
20241;SDS011;10279;46.388;8.116;2022-08-19T09:25:28;3.23;;;2.93;;
20241;SDS011;10279;46.388;8.116;2022-08-19T09:27:57;4.37;;;2.73;;
20241;SDS011;10279;46.388;8.116;2022-08-19T09:30:40;3.30;;;2.70;;
20241;SDS011;10279;46.388;8.116;2022-08-19T09:33:08;3.73;;;2.70;;
20241;SDS011;10279;46.388;8.116;2022-08-19T09:35:39;3.40;;;2.90;;
20241;SDS011;10279;46.388;8.116;2022-08-19T09:38:19;4.97;;;3.07;;
20241;SDS011;10279;46.388;8.116;2022-08-19T09:40:47;2.77;;;2.57;;
20241;SDS011;10279;46.388;8.116;2022-08-19T09:43:16;2.83;;;2.47;;
20241;SDS011;10279;46.388;8.116;2022-08-19T09:46:00;3.07;;;2.80;;
20241;SDS011;10279;46.388;8.116;2022-08-19T09:48:27;3.00;;;2.70;;
20241;SDS011;10279;46.388;8.116;2022-08-19T09:51:01;3.03;;;2.77;;
20241;SDS011;10279;46.388;8.116;2022-08-19T09:53:30;3.23;;;2.77;;
20241;SDS011;10279;46.388;8.116;2022-08-19T09:55:59;3.73;;;3.20;;
20241;SDS011;10279;46.388;8.116;2022-08-19T09:58:29;3.20;;;2.90;;
20241;SDS011;10279;46.388;8.116;2022-08-19T10:00:57;4.07;;;2.50;;
20241;SDS011;10279;46.388;8.116;2022-08-19T10:03:26;3.77;;;3.40;;
20241;SDS011;10279;46.388;8.116;2022-08-19T10:05:56;3.90;;;3.30;;
20241;SDS011;10279;46.388;8.116;2022-08-19T10:08:25;4.53;;;3.43;;
20241;SDS011;10279;46.388;8.116;2022-08-19T10:10:53;3.27;;;2.97;;
20241;SDS011;10279;46.388;8.116;2022-08-19T10:13:22;4.07;;;3.50;;
20241;SDS011;10279;46.388;8.116;2022-08-19T10:15:54;4.67;;;3.80;;
20241;SDS011;10279;46.388;8.116;2022-08-19T10:18:23;5.13;;;3.30;;
20241;SDS011;10279;46.388;8.116;2022-08-19T10:20:51;3.77;;;3.47;;
20241;SDS011;10279;46.388;8.116;2022-08-19T10:23:20;3.67;;;3.37;;
20241;SDS011;10279;46.388;8.116;2022-08-19T10:25:48;3.37;;;3.07;;
20241;SDS011;10279;46.388;8.116;2022-08-19T10:28:16;3.87;;;2.73;;
20241;SDS011;10279;46.388;8.116;2022-08-19T10:30:44;3.97;;;2.90;;
20241;SDS011;10279;46.388;8.116;2022-08-19T10:33:12;3.37;;;2.93;;
20241;SDS011;10279;46.388;8.116;2022-08-19T10:36:02;2.70;;;2.50;;
20241;SDS011;10279;46.388;8.116;2022-08-19T10:38:30;3.40;;;3.10;;
20241;SDS011;10279;46.388;8.116;2022-08-19T10:41:05;2.70;;;2.50;;
20241;SDS011;10279;46.388;8.116;2022-08-19T10:43:33;3.47;;;3.03;;
20241;SDS011;10279;46.388;8.116;2022-08-19T10:46:07;4.20;;;3.10;;
20241;SDS011;10279;46.388;8.116;2022-08-19T10:48:42;2.67;;;2.40;;
20241;SDS011;10279;46.388;8.116;2022-08-19T10:51:10;2.00;;;1.90;;
20241;SDS011;10279;46.388;8.116;2022-08-19T10:53:57;2.40;;;2.20;;
20241;SDS011;10279;46.388;8.116;2022-08-19T10:56:25;3.80;;;2.10;;
20241;SDS011;10279;46.388;8.116;2022-08-19T10:59:11;1.63;;;1.53;;
20241;SDS011;10279;46.388;8.116;2022-08-19T11:01:41;1.77;;;1.60;;
20241;SDS011;10279;46.388;8.116;2022-08-19T11:04:09;1.70;;;1.60;;
20241;SDS011;10279;46.388;8.116;2022-08-19T11:06:37;1.40;;;1.30;;
20241;SDS011;10279;46.388;8.116;2022-08-19T11:09:04;1.00;;;1.00;;
20241;SDS011;10279;46.388;8.116;2022-08-19T11:11:32;2.03;;;1.33;;
20241;SDS011;10279;46.388;8.116;2022-08-19T11:14:08;1.77;;;1.23;;
20241;SDS011;10279;46.388;8.116;2022-08-19T11:16:36;1.20;;;1.10;;
20241;SDS011;10279;46.388;8.116;2022-08-19T11:19:05;1.93;;;1.10;;
20241;SDS011;10279;46.388;8.116;2022-08-19T11:21:36;1.20;;;1.10;;
20241;SDS011;10279;46.388;8.116;2022-08-19T11:24:05;1.00;;;1.00;;
20241;SDS011;10279;46.388;8.116;2022-08-19T11:26:33;1.63;;;1.20;;
20241;SDS011;10279;46.388;8.116;2022-08-19T11:29:01;1.63;;;1.33;;
20241;SDS011;10279;46.388;8.116;2022-08-19T11:31:30;2.00;;;1.10;;
20241;SDS011;10279;46.388;8.116;2022-08-19T11:33:59;1.87;;;1.30;;
20241;SDS011;10279;46.388;8.116;2022-08-19T11:36:27;3.87;;;1.50;;
20241;SDS011;10279;46.388;8.116;2022-08-19T11:38:55;1.90;;;1.27;;
20241;SDS011;10279;46.388;8.116;2022-08-19T11:41:23;3.53;;;1.30;;
20241;SDS011;10279;46.388;8.116;2022-08-19T11:43:51;1.30;;;1.13;;
20241;SDS011;10279;46.388;8.116;2022-08-19T11:46:22;1.40;;;1.30;;
20241;SDS011;10279;46.388;8.116;2022-08-19T11:48:50;1.60;;;1.50;;
20241;SDS011;10279;46.388;8.116;2022-08-19T11:51:20;1.47;;;1.37;;
20241;SDS011;10279;46.388;8.116;2022-08-19T11:53:48;2.37;;;1.40;;
20241;SDS011;10279;46.388;8.116;2022-08-19T11:56:17;1.47;;;1.37;;
20241;SDS011;10279;46.388;8.116;2022-08-19T11:58:45;2.50;;;1.60;;
20241;SDS011;10279;46.388;8.116;2022-08-19T12:01:14;1.10;;;1.10;;
20241;SDS011;10279;46.388;8.116;2022-08-19T12:03:43;1.80;;;1.40;;
20241;SDS011;10279;46.388;8.116;2022-08-19T12:06:12;4.43;;;1.40;;
20241;SDS011;10279;46.388;8.116;2022-08-19T12:08:42;3.20;;;1.20;;
20241;SDS011;10279;46.388;8.116;2022-08-19T12:11:10;1.37;;;1.23;;
20241;SDS011;10279;46.388;8.116;2022-08-19T12:13:40;1.00;;;1.00;;
20241;SDS011;10279;46.388;8.116;2022-08-19T12:16:12;1.40;;;1.30;;
20241;SDS011;10279;46.388;8.116;2022-08-19T12:18:41;1.20;;;1.10;;
20241;SDS011;10279;46.388;8.116;2022-08-19T12:21:13;1.90;;;1.10;;
20241;SDS011;10279;46.388;8.116;2022-08-19T12:23:41;1.17;;;1.07;;
20241;SDS011;10279;46.388;8.116;2022-08-19T12:26:11;2.60;;;1.13;;
20241;SDS011;10279;46.388;8.116;2022-08-19T12:28:39;2.10;;;1.10;;
20241;SDS011;10279;46.388;8.116;2022-08-19T12:31:07;1.20;;;1.10;;
20241;SDS011;10279;46.388;8.116;2022-08-19T12:33:35;1.20;;;1.10;;
20241;SDS011;10279;46.388;8.116;2022-08-19T12:36:03;1.30;;;1.02;;
20241;SDS011;10279;46.388;8.116;2022-08-19T12:38:32;1.20;;;1.10;;
20241;SDS011;10279;46.388;8.116;2022-08-19T12:41:00;0.90;;;0.90;;
20241;SDS011;10279;46.388;8.116;2022-08-19T12:43:33;1.42;;;1.33;;
20241;SDS011;10279;46.388;8.116;2022-08-19T12:46:01;1.73;;;1.20;;
20241;SDS011;10279;46.388;8.116;2022-08-19T12:48:30;1.52;;;1.42;;
20241;SDS011;10279;46.388;8.116;2022-08-19T12:51:00;2.38;;;1.80;;
20241;SDS011;10279;46.388;8.116;2022-08-19T12:53:32;3.08;;;1.85;;
20241;SDS011;10279;46.388;8.116;2022-08-19T12:56:05;1.60;;;1.50;;
20241;SDS011;10279;46.388;8.116;2022-08-19T12:58:37;2.55;;;1.42;;
20241;SDS011;10279;46.388;8.116;2022-08-19T13:01:06;1.50;;;1.40;;
20241;SDS011;10279;46.388;8.116;2022-08-19T13:03:33;1.73;;;1.58;;
20241;SDS011;10279;46.388;8.116;2022-08-19T13:06:07;2.25;;;2.03;;
20241;SDS011;10279;46.388;8.116;2022-08-19T13:08:35;3.72;;;2.00;;
20241;SDS011;10279;46.388;8.116;2022-08-19T13:13:41;2.88;;;1.95;;
20241;SDS011;10279;46.388;8.116;2022-08-19T13:16:10;2.30;;;1.90;;
20241;SDS011;10279;46.388;8.116;2022-08-19T13:18:38;4.50;;;2.20;;
20241;SDS011;10279;46.388;8.116;2022-08-19T13:21:07;1.98;;;1.77;;
20241;SDS011;10279;46.388;8.116;2022-08-19T13:23:35;3.22;;;1.92;;
20241;SDS011;10279;46.388;8.116;2022-08-19T13:26:04;2.72;;;2.35;;
20241;SDS011;10279;46.388;8.116;2022-08-19T13:28:32;4.55;;;2.33;;
20241;SDS011;10279;46.388;8.116;2022-08-19T13:31:19;2.17;;;1.98;;
20241;SDS011;10279;46.388;8.116;2022-08-19T13:34:05;2.22;;;1.98;;
20241;SDS011;10279;46.388;8.116;2022-08-19T13:36:33;3.35;;;2.33;;
20241;SDS011;10279;46.388;8.116;2022-08-19T13:39:01;3.28;;;2.28;;
20241;SDS011;10279;46.388;8.116;2022-08-19T13:41:28;2.53;;;2.20;;
20241;SDS011;10279;46.388;8.116;2022-08-19T13:43:56;2.97;;;2.10;;
20241;SDS011;10279;46.388;8.116;2022-08-19T13:46:24;4.18;;;2.28;;
20241;SDS011;10279;46.388;8.116;2022-08-19T13:48:53;2.22;;;2.03;;
20241;SDS011;10279;46.388;8.116;2022-08-19T13:51:21;2.95;;;2.38;;
20241;SDS011;10279;46.388;8.116;2022-08-19T13:53:48;2.20;;;1.95;;
20241;SDS011;10279;46.388;8.116;2022-08-19T13:56:18;2.38;;;1.90;;
20241;SDS011;10279;46.388;8.116;2022-08-19T13:58:51;2.47;;;2.10;;
20241;SDS011;10279;46.388;8.116;2022-08-19T14:01:23;2.95;;;1.90;;
20241;SDS011;10279;46.388;8.116;2022-08-19T14:03:50;2.30;;;2.10;;
20241;SDS011;10279;46.388;8.116;2022-08-19T14:06:19;2.20;;;2.00;;
20241;SDS011;10279;46.388;8.116;2022-08-19T14:08:47;2.60;;;2.38;;
20241;SDS011;10279;46.388;8.116;2022-08-19T14:11:15;2.75;;;2.50;;
20241;SDS011;10279;46.388;8.116;2022-08-19T14:13:43;2.83;;;2.30;;
20241;SDS011;10279;46.388;8.116;2022-08-19T14:16:11;3.63;;;2.47;;
20241;SDS011;10279;46.388;8.116;2022-08-19T14:18:39;3.25;;;2.95;;
20241;SDS011;10279;46.388;8.116;2022-08-19T14:21:06;2.22;;;1.83;;
20241;SDS011;10279;46.388;8.116;2022-08-19T14:23:34;2.50;;;2.30;;
20241;SDS011;10279;46.388;8.116;2022-08-19T14:26:03;2.90;;;2.15;;
20241;SDS011;10279;46.388;8.116;2022-08-19T14:28:30;2.28;;;2.08;;
20241;SDS011;10279;46.388;8.116;2022-08-19T14:30:58;2.80;;;2.60;;
20241;SDS011;10279;46.388;8.116;2022-08-19T14:33:25;3.38;;;2.45;;
20241;SDS011;10279;46.388;8.116;2022-08-19T14:35:55;2.72;;;2.08;;
20241;SDS011;10279;46.388;8.116;2022-08-19T14:38:25;2.20;;;2.00;;
20241;SDS011;10279;46.388;8.116;2022-08-19T14:41:16;2.22;;;1.63;;
20241;SDS011;10279;46.388;8.116;2022-08-19T14:43:46;1.85;;;1.75;;
20241;SDS011;10279;46.388;8.116;2022-08-19T14:46:14;2.33;;;1.65;;
20241;SDS011;10279;46.388;8.116;2022-08-19T14:48:43;3.53;;;2.15;;
20241;SDS011;10279;46.388;8.116;2022-08-19T14:51:10;2.25;;;1.73;;
20241;SDS011;10279;46.388;8.116;2022-08-19T14:53:38;5.20;;;2.00;;
20241;SDS011;10279;46.388;8.116;2022-08-19T14:56:09;2.88;;;2.53;;
20241;SDS011;10279;46.388;8.116;2022-08-19T14:58:36;2.35;;;1.95;;
20241;SDS011;10279;46.388;8.116;2022-08-19T15:01:04;4.18;;;1.90;;
20241;SDS011;10279;46.388;8.116;2022-08-19T15:03:32;3.10;;;1.67;;
20241;SDS011;10279;46.388;8.116;2022-08-19T15:06:00;2.97;;;1.90;;
20241;SDS011;10279;46.388;8.116;2022-08-19T15:08:29;2.42;;;1.70;;
20241;SDS011;10279;46.388;8.116;2022-08-19T15:10:58;2.15;;;1.50;;
20241;SDS011;10279;46.388;8.116;2022-08-19T15:13:26;1.63;;;1.38;;
20241;SDS011;10279;46.388;8.116;2022-08-19T15:15:54;2.38;;;1.83;;
20241;SDS011;10279;46.388;8.116;2022-08-19T15:18:22;1.65;;;1.55;;
20241;SDS011;10279;46.388;8.116;2022-08-19T15:20:50;3.35;;;1.63;;